createdAt,value
2017-05-21T00:00:39.896Z,0
2017-05-21T00:01:48.004Z,0
2017-05-21T00:02:56.070Z,0
2017-05-21T00:04:04.155Z,0
2017-05-21T00:05:12.243Z,0
2017-05-21T00:06:20.329Z,0
2017-05-21T00:07:28.417Z,0
2017-05-21T00:08:36.506Z,0
2017-05-21T00:09:44.596Z,0
2017-05-21T00:10:52.678Z,0
2017-05-21T00:12:00.769Z,0
2017-05-21T00:13:08.850Z,0
2017-05-21T00:14:16.939Z,0
2017-05-21T00:15:25.026Z,0
2017-05-21T00:16:33.113Z,0
2017-05-21T00:17:41.198Z,0
2017-05-21T00:18:49.295Z,0
2017-05-21T00:19:57.374Z,0
2017-05-21T00:21:05.464Z,0
2017-05-21T00:22:13.549Z,0
2017-05-21T00:23:21.632Z,0
2017-05-21T00:24:29.721Z,0
2017-05-21T00:25:37.809Z,0
2017-05-21T00:26:46.028Z,0
2017-05-21T00:27:53.983Z,0
2017-05-21T00:29:02.069Z,0
2017-05-21T00:30:10.156Z,0
2017-05-21T00:31:18.251Z,0
2017-05-21T00:32:26.330Z,0
2017-05-21T00:33:34.416Z,0
2017-05-21T00:34:42.508Z,0
2017-05-21T00:35:50.592Z,0
2017-05-21T00:36:58.678Z,0
2017-05-21T00:38:06.765Z,0
2017-05-21T00:39:14.850Z,0
2017-05-21T00:40:23.733Z,0
2017-05-21T00:41:31.532Z,0
2017-05-21T00:42:39.114Z,0
2017-05-21T00:43:47.199Z,0
2017-05-21T00:44:55.288Z,0
2017-05-21T00:46:03.373Z,0
2017-05-21T00:47:11.461Z,0
2017-05-21T00:48:19.550Z,0
2017-05-21T00:49:27.635Z,0
2017-05-21T00:50:35.783Z,0
2017-05-21T00:51:43.837Z,0
2017-05-21T00:52:51.908Z,0
2017-05-21T00:53:59.997Z,0
2017-05-21T00:55:08.074Z,0
2017-05-21T00:56:16.163Z,0
2017-05-21T00:57:24.276Z,0
2017-05-21T00:58:32.337Z,0
2017-05-21T00:59:40.428Z,0
2017-05-21T01:00:48.511Z,0
2017-05-21T01:01:56.597Z,0
2017-05-21T01:03:04.685Z,0
2017-05-21T01:04:12.770Z,0
2017-05-21T01:05:20.857Z,0
2017-05-21T01:06:28.946Z,0
2017-05-21T01:07:37.035Z,0
2017-05-21T01:08:45.118Z,0
2017-05-21T01:09:53.209Z,0
2017-05-21T01:11:01.295Z,0
2017-05-21T01:12:09.383Z,0
2017-05-21T01:13:17.467Z,0
2017-05-21T01:14:25.558Z,0
2017-05-21T01:15:33.640Z,0
2017-05-21T01:16:41.731Z,0
2017-05-21T01:17:49.820Z,0
2017-05-21T01:18:57.938Z,0
2017-05-21T01:20:06.000Z,0
2017-05-21T01:21:14.085Z,0
2017-05-21T01:22:22.173Z,0
2017-05-21T01:23:30.261Z,0
2017-05-21T01:24:38.348Z,0
2017-05-21T01:25:46.433Z,0
2017-05-21T01:26:54.522Z,0
2017-05-21T01:28:02.608Z,0
2017-05-21T01:29:10.696Z,0
2017-05-21T01:30:18.791Z,0
2017-05-21T01:31:26.895Z,0
2017-05-21T01:32:34.957Z,0
2017-05-21T01:33:43.093Z,0
2017-05-21T01:34:51.130Z,0
2017-05-21T01:35:59.227Z,0
2017-05-21T01:37:07.303Z,0
2017-05-21T01:38:15.390Z,0
2017-05-21T01:39:23.484Z,0
2017-05-21T01:40:31.564Z,0
2017-05-21T01:41:39.650Z,0
2017-05-21T01:42:47.747Z,0
2017-05-21T01:43:55.837Z,0
2017-05-21T01:45:03.916Z,0
2017-05-21T01:46:12.004Z,0
2017-05-21T01:47:20.116Z,0
2017-05-21T01:48:28.179Z,0
2017-05-21T01:49:36.267Z,0
2017-05-21T01:50:44.365Z,0
2017-05-21T01:51:52.480Z,0
2017-05-21T01:53:00.527Z,0
2017-05-21T01:54:08.615Z,0
2017-05-21T01:55:16.700Z,0
2017-05-21T01:56:24.833Z,0
2017-05-21T01:57:32.876Z,0
2017-05-21T01:58:40.962Z,0
2017-05-21T01:59:49.053Z,0
2017-05-21T02:00:57.135Z,0
2017-05-21T02:02:05.223Z,0
2017-05-21T02:03:13.308Z,0
2017-05-21T02:04:21.397Z,0
2017-05-21T02:05:29.483Z,0
2017-05-21T02:06:37.570Z,0
2017-05-21T02:07:45.656Z,0
2017-05-21T02:08:53.744Z,0
2017-05-21T02:10:01.834Z,0
2017-05-21T02:11:09.936Z,0
2017-05-21T02:12:18.060Z,0
2017-05-21T02:13:26.163Z,0
2017-05-21T02:14:34.177Z,0
2017-05-21T02:15:42.264Z,0
2017-05-21T02:16:50.352Z,0
2017-05-21T02:17:58.437Z,0
2017-05-21T02:19:06.525Z,0
2017-05-21T02:20:14.612Z,0
2017-05-21T02:21:22.703Z,0
2017-05-21T02:22:30.786Z,0
2017-05-21T02:23:38.874Z,0
2017-05-21T02:24:46.961Z,0
2017-05-21T02:25:55.049Z,0
2017-05-21T02:27:03.136Z,0
2017-05-21T02:28:11.248Z,0
2017-05-21T02:29:19.310Z,0
2017-05-21T02:30:27.485Z,0
2017-05-21T02:31:35.481Z,0
2017-05-21T02:32:43.567Z,0
2017-05-21T02:33:51.656Z,0
2017-05-21T02:34:59.751Z,0
2017-05-21T02:36:07.830Z,0
2017-05-21T02:37:15.919Z,0
2017-05-21T02:38:24.003Z,0
2017-05-21T02:39:32.089Z,0
2017-05-21T02:40:40.179Z,0
2017-05-21T02:41:48.262Z,0
2017-05-21T02:42:56.350Z,0
2017-05-21T02:44:04.437Z,0
2017-05-21T02:45:12.523Z,0
2017-05-21T02:46:20.613Z,0
2017-05-21T02:47:28.698Z,0
2017-05-21T02:48:36.783Z,0
2017-05-21T02:49:44.868Z,0
2017-05-21T02:50:52.959Z,0
2017-05-21T02:52:01.043Z,0
2017-05-21T02:53:09.128Z,0
2017-05-21T02:54:17.230Z,0
2017-05-21T02:55:25.312Z,0
2017-05-21T02:56:33.391Z,0
2017-05-21T02:57:41.477Z,0
2017-05-21T02:58:49.563Z,0
2017-05-21T02:59:57.654Z,0
2017-05-21T03:01:05.736Z,0
2017-05-21T03:02:13.830Z,0
2017-05-21T03:03:21.941Z,0
2017-05-21T03:04:30.003Z,0
2017-05-21T03:05:38.090Z,0
2017-05-21T03:06:46.185Z,0
2017-05-21T03:07:54.261Z,0
2017-05-21T03:09:02.350Z,0
2017-05-21T03:10:10.434Z,0
2017-05-21T03:11:18.521Z,0
2017-05-21T03:12:26.609Z,0
2017-05-21T03:13:34.700Z,0
2017-05-21T03:14:42.783Z,0
2017-05-21T03:15:50.897Z,0
2017-05-21T03:16:58.956Z,0
2017-05-21T03:18:07.073Z,0
2017-05-21T03:19:15.136Z,0
2017-05-21T03:20:23.223Z,0
2017-05-21T03:21:31.310Z,0
2017-05-21T03:22:39.396Z,0
2017-05-21T03:23:47.483Z,0
2017-05-21T03:24:55.568Z,0
2017-05-21T03:26:03.651Z,0
2017-05-21T03:27:11.739Z,0
2017-05-21T03:28:19.825Z,0
2017-05-21T03:29:27.925Z,0
2017-05-21T03:30:36.013Z,0
2017-05-21T03:31:44.085Z,0
2017-05-21T03:32:52.201Z,0
2017-05-21T03:34:00.259Z,0
2017-05-21T03:35:08.344Z,0
2017-05-21T03:36:16.430Z,0
2017-05-21T03:37:24.517Z,0
2017-05-21T03:38:32.604Z,0
2017-05-21T03:39:40.689Z,0
2017-05-21T03:40:48.775Z,0
2017-05-21T03:41:56.886Z,0
2017-05-21T03:43:04.950Z,0
2017-05-21T03:44:13.032Z,0
2017-05-21T03:45:21.122Z,0
2017-05-21T03:46:29.203Z,4
2017-05-21T03:47:37.317Z,4
2017-05-21T03:48:45.376Z,4
2017-05-21T03:49:53.462Z,0
2017-05-21T03:51:01.551Z,0
2017-05-21T03:52:09.634Z,0
2017-05-21T03:53:17.721Z,0
2017-05-21T03:54:25.809Z,0
2017-05-21T03:55:34.010Z,0
2017-05-21T03:56:41.976Z,0
2017-05-21T03:57:50.063Z,0
2017-05-21T03:58:58.151Z,0
2017-05-21T04:00:06.242Z,4
2017-05-21T04:01:14.323Z,4
2017-05-21T04:02:22.410Z,4
2017-05-21T04:03:30.497Z,4
2017-05-21T04:04:38.580Z,4
2017-05-21T04:05:46.664Z,4
2017-05-21T04:06:54.751Z,4
2017-05-21T04:08:02.867Z,4
2017-05-21T04:09:10.930Z,0
2017-05-21T04:10:19.017Z,0
2017-05-21T04:11:27.126Z,0
2017-05-21T04:12:35.186Z,0
2017-05-21T04:13:43.269Z,0
2017-05-21T04:14:51.357Z,4
2017-05-21T04:15:59.443Z,4
2017-05-21T04:17:07.529Z,4
2017-05-21T04:18:15.615Z,4
2017-05-21T04:19:23.701Z,4
2017-05-21T04:20:31.786Z,4
2017-05-21T04:21:39.874Z,0
2017-05-21T04:22:47.959Z,4
2017-05-21T04:23:56.043Z,4
2017-05-21T04:25:04.128Z,4
2017-05-21T04:26:12.219Z,4
2017-05-21T04:27:20.310Z,4
2017-05-21T04:28:28.391Z,4
2017-05-21T04:29:36.481Z,4
2017-05-21T04:30:44.565Z,4
2017-05-21T04:31:52.653Z,4
2017-05-21T04:33:00.736Z,8
2017-05-21T04:34:08.823Z,4
2017-05-21T04:35:16.909Z,4
2017-05-21T04:36:25.117Z,4
2017-05-21T04:37:33.091Z,4
2017-05-21T04:38:41.178Z,8
2017-05-21T04:39:49.254Z,8
2017-05-21T04:40:57.341Z,4
2017-05-21T04:42:05.425Z,4
2017-05-21T04:43:13.512Z,4
2017-05-21T04:44:21.596Z,8
2017-05-21T04:45:29.681Z,8
2017-05-21T04:46:37.772Z,4
2017-05-21T04:47:45.854Z,4
2017-05-21T04:48:53.938Z,8
2017-05-21T04:50:02.024Z,8
2017-05-21T04:51:10.122Z,8
2017-05-21T04:52:18.210Z,4
2017-05-21T04:53:26.287Z,8
2017-05-21T04:54:34.374Z,8
2017-05-21T04:55:42.458Z,8
2017-05-21T04:56:50.552Z,8
2017-05-21T04:57:58.642Z,16
2017-05-21T04:59:06.735Z,16
2017-05-21T05:00:14.812Z,16
2017-05-21T05:01:22.898Z,16
2017-05-21T05:02:30.983Z,16
2017-05-21T05:03:39.075Z,20
2017-05-21T05:04:47.157Z,16
2017-05-21T05:05:55.241Z,20
2017-05-21T05:07:03.324Z,12
2017-05-21T05:08:11.412Z,12
2017-05-21T05:09:19.498Z,12
2017-05-21T05:10:27.582Z,12
2017-05-21T05:11:35.716Z,8
2017-05-21T05:12:43.754Z,8
2017-05-21T05:13:51.840Z,8
2017-05-21T05:14:59.949Z,12
2017-05-21T05:16:08.013Z,12
2017-05-21T05:17:16.097Z,12
2017-05-21T05:18:24.183Z,12
2017-05-21T05:19:32.270Z,12
2017-05-21T05:20:40.981Z,12
2017-05-21T05:21:48.444Z,16
2017-05-21T05:22:56.534Z,12
2017-05-21T05:24:04.614Z,12
2017-05-21T05:25:12.731Z,12
2017-05-21T05:26:21.186Z,12
2017-05-21T05:27:28.894Z,8
2017-05-21T05:28:36.956Z,12
2017-05-21T05:29:45.040Z,12
2017-05-21T05:30:53.126Z,12
2017-05-21T05:32:01.213Z,12
2017-05-21T05:33:09.300Z,12
2017-05-21T05:34:17.411Z,12
2017-05-21T05:35:25.470Z,12
2017-05-21T05:36:33.553Z,12
2017-05-21T05:37:41.638Z,12
2017-05-21T05:38:49.723Z,12
2017-05-21T05:39:57.811Z,12
2017-05-21T05:41:06.350Z,12
2017-05-21T05:42:13.994Z,12
2017-05-21T05:43:22.087Z,12
2017-05-21T05:45:38.409Z,12
2017-05-21T05:46:46.346Z,12
2017-05-21T05:47:54.430Z,16
2017-05-21T05:49:02.519Z,12
2017-05-21T05:50:10.712Z,12
2017-05-21T05:51:18.687Z,16
2017-05-21T05:52:26.774Z,12
2017-05-21T05:53:34.858Z,12
2017-05-21T05:54:42.945Z,16
2017-05-21T05:55:51.111Z,12
2017-05-21T05:56:59.125Z,16
2017-05-21T05:58:07.242Z,16
2017-05-21T05:59:16.507Z,16
2017-05-21T06:00:23.370Z,16
2017-05-21T06:01:31.463Z,16
2017-05-21T06:02:39.852Z,16
2017-05-21T06:03:47.688Z,16
2017-05-21T06:04:55.721Z,16
2017-05-21T06:06:03.814Z,16
2017-05-21T06:07:11.980Z,16
2017-05-21T06:08:19.985Z,16
2017-05-21T06:09:28.061Z,16
2017-05-21T06:10:36.147Z,16
2017-05-21T06:11:44.232Z,16
2017-05-21T06:12:52.316Z,16
2017-05-21T06:14:00.405Z,16
2017-05-21T06:15:08.489Z,16
2017-05-21T06:16:16.573Z,16
2017-05-21T06:17:24.660Z,16
2017-05-21T06:18:32.745Z,16
2017-05-21T06:19:40.830Z,16
2017-05-21T06:20:48.915Z,16
2017-05-21T06:21:57.000Z,16
2017-05-21T06:23:05.097Z,16
2017-05-21T06:24:13.171Z,16
2017-05-21T06:25:21.255Z,20
2017-05-21T06:26:29.342Z,16
2017-05-21T06:27:37.435Z,16
2017-05-21T06:28:45.520Z,20
2017-05-21T06:29:53.608Z,20
2017-05-21T06:31:01.691Z,20
2017-05-21T06:32:09.778Z,20
2017-05-21T06:33:17.862Z,20
2017-05-21T06:34:25.979Z,20
2017-05-21T06:35:34.068Z,20
2017-05-21T06:36:42.152Z,20
2017-05-21T06:37:50.202Z,24
2017-05-21T06:38:58.292Z,20
2017-05-21T06:40:06.397Z,20
2017-05-21T06:41:14.462Z,20
2017-05-21T06:42:22.546Z,24
2017-05-21T06:43:30.636Z,28
2017-05-21T06:44:38.731Z,32
2017-05-21T06:45:46.804Z,32
2017-05-21T06:46:54.896Z,36
2017-05-21T06:48:02.975Z,36
2017-05-21T06:49:11.372Z,40
2017-05-21T06:50:19.149Z,44
2017-05-21T06:51:27.232Z,40
2017-05-21T06:52:35.317Z,44
2017-05-21T06:53:43.404Z,40
2017-05-21T06:54:51.491Z,44
2017-05-21T06:55:59.574Z,40
2017-05-21T06:57:07.659Z,36
2017-05-21T06:58:15.743Z,40
2017-05-21T06:59:23.831Z,40
2017-05-21T07:00:31.915Z,40
2017-05-21T07:01:40.008Z,36
2017-05-21T07:02:48.086Z,36
2017-05-21T07:03:56.175Z,40
2017-05-21T07:05:04.262Z,36
2017-05-21T07:06:12.347Z,36
2017-05-21T07:07:20.429Z,40
2017-05-21T07:08:28.514Z,44
2017-05-21T07:09:36.597Z,40
2017-05-21T07:10:44.691Z,40
2017-05-21T07:11:52.774Z,40
2017-05-21T07:13:00.887Z,40
2017-05-21T07:14:08.947Z,44
2017-05-21T07:15:17.034Z,40
2017-05-21T07:16:25.143Z,44
2017-05-21T07:17:33.203Z,44
2017-05-21T07:18:41.300Z,48
2017-05-21T07:19:49.381Z,44
2017-05-21T07:20:57.464Z,48
2017-05-21T07:22:05.558Z,52
2017-05-21T07:23:13.645Z,48
2017-05-21T07:24:21.727Z,48
2017-05-21T07:25:29.811Z,48
2017-05-21T07:26:37.897Z,48
2017-05-21T07:27:45.985Z,48
2017-05-21T07:28:54.069Z,48
2017-05-21T07:30:02.156Z,48
2017-05-21T07:31:10.265Z,48
2017-05-21T07:32:18.451Z,52
2017-05-21T07:33:26.413Z,52
2017-05-21T07:34:34.496Z,52
2017-05-21T07:35:42.583Z,56
2017-05-21T07:36:50.668Z,56
2017-05-21T07:37:58.753Z,52
2017-05-21T07:39:06.839Z,56
2017-05-21T07:40:14.926Z,52
2017-05-21T07:41:23.013Z,52
2017-05-21T07:42:31.099Z,56
2017-05-21T07:43:39.182Z,56
2017-05-21T07:44:47.268Z,52
2017-05-21T07:45:55.353Z,52
2017-05-21T07:47:03.441Z,52
2017-05-21T07:48:11.535Z,56
2017-05-21T07:49:20.021Z,52
2017-05-21T07:50:27.807Z,52
2017-05-21T07:51:35.850Z,52
2017-05-21T07:52:43.997Z,56
2017-05-21T07:53:52.022Z,52
2017-05-21T07:55:00.140Z,56
2017-05-21T07:56:08.239Z,52
2017-05-21T07:57:16.314Z,48
2017-05-21T07:58:24.420Z,48
2017-05-21T07:59:32.495Z,48
2017-05-21T08:00:40.580Z,48
2017-05-21T08:01:48.669Z,44
2017-05-21T08:02:56.760Z,44
2017-05-21T08:04:04.802Z,48
2017-05-21T08:05:12.953Z,48
2017-05-21T08:06:21.045Z,48
2017-05-21T08:07:29.004Z,48
2017-05-21T08:08:37.092Z,48
2017-05-21T08:09:45.184Z,52
2017-05-21T08:10:53.262Z,52
2017-05-21T08:12:01.347Z,48
2017-05-21T08:13:09.444Z,48
2017-05-21T08:14:17.520Z,48
2017-05-21T08:15:25.612Z,48
2017-05-21T08:16:33.699Z,44
2017-05-21T08:17:41.783Z,48
2017-05-21T08:18:49.924Z,44
2017-05-21T08:19:57.955Z,48
2017-05-21T08:21:06.043Z,48
2017-05-21T08:22:14.153Z,44
2017-05-21T08:23:22.218Z,44
2017-05-21T08:24:30.303Z,44
2017-05-21T08:25:38.387Z,44
2017-05-21T08:26:46.476Z,44
2017-05-21T08:27:54.562Z,44
2017-05-21T08:29:02.645Z,44
2017-05-21T08:30:10.732Z,44
2017-05-21T08:31:18.818Z,44
2017-05-21T08:32:26.907Z,44
2017-05-21T08:33:34.991Z,40
2017-05-21T08:34:43.074Z,40
2017-05-21T08:35:51.207Z,40
2017-05-21T08:36:59.254Z,44
2017-05-21T08:38:07.333Z,40
2017-05-21T08:39:15.419Z,40
2017-05-21T08:40:23.506Z,40
2017-05-21T08:41:31.590Z,40
2017-05-21T08:42:39.679Z,40
2017-05-21T08:43:47.764Z,40
2017-05-21T08:44:55.850Z,40
2017-05-21T08:46:03.945Z,36
2017-05-21T08:47:12.022Z,40
2017-05-21T08:48:20.105Z,40
2017-05-21T08:49:28.194Z,36
2017-05-21T08:50:36.280Z,40
2017-05-21T08:51:44.365Z,40
2017-05-21T08:52:52.476Z,40
2017-05-21T08:54:00.537Z,40
2017-05-21T08:55:08.623Z,36
2017-05-21T08:56:16.708Z,36
2017-05-21T08:57:24.794Z,36
2017-05-21T08:58:32.881Z,36
2017-05-21T08:59:40.969Z,36
2017-05-21T09:00:49.052Z,36
2017-05-21T09:01:57.139Z,40
2017-05-21T09:03:05.236Z,40
2017-05-21T09:04:13.310Z,36
2017-05-21T09:05:21.396Z,40
2017-05-21T09:06:29.481Z,40
2017-05-21T09:07:37.568Z,36
2017-05-21T09:08:45.653Z,40
2017-05-21T09:09:53.821Z,40
2017-05-21T09:11:01.822Z,36
2017-05-21T09:12:09.911Z,36
2017-05-21T09:13:17.996Z,36
2017-05-21T09:14:26.099Z,36
2017-05-21T09:15:34.170Z,36
2017-05-21T09:16:42.254Z,36
2017-05-21T09:17:50.340Z,36
2017-05-21T09:18:58.424Z,36
2017-05-21T09:20:06.516Z,36
2017-05-21T09:21:14.598Z,36
2017-05-21T09:22:22.683Z,36
2017-05-21T09:23:30.776Z,40
2017-05-21T09:24:38.866Z,40
2017-05-21T09:25:46.944Z,36
2017-05-21T09:26:55.123Z,40
2017-05-21T09:28:03.115Z,36
2017-05-21T09:29:11.205Z,40
2017-05-21T09:30:19.290Z,36
2017-05-21T09:31:27.375Z,40
2017-05-21T09:32:35.471Z,40
2017-05-21T09:33:43.554Z,40
2017-05-21T09:34:51.640Z,36
2017-05-21T09:35:59.726Z,36
2017-05-21T09:37:07.811Z,40
2017-05-21T09:38:15.895Z,16
2017-05-21T09:39:23.992Z,8
2017-05-21T09:40:32.069Z,40
2017-05-21T09:41:40.156Z,40
2017-05-21T09:42:48.240Z,40
2017-05-21T09:43:56.331Z,40
2017-05-21T09:45:04.413Z,36
2017-05-21T09:46:12.496Z,40
2017-05-21T09:47:20.582Z,40
2017-05-21T09:48:28.678Z,40
2017-05-21T09:49:36.760Z,44
2017-05-21T09:50:44.872Z,40
2017-05-21T09:51:52.933Z,40
2017-05-21T09:53:01.045Z,40
2017-05-21T09:54:09.103Z,40
2017-05-21T09:55:17.192Z,40
2017-05-21T09:56:25.276Z,40
2017-05-21T09:57:33.363Z,40
2017-05-21T09:58:41.448Z,44
2017-05-21T09:59:49.537Z,44
2017-05-21T10:00:57.622Z,40
2017-05-21T10:02:05.707Z,44
2017-05-21T10:03:13.793Z,44
2017-05-21T10:04:21.880Z,40
2017-05-21T10:05:30.014Z,40
2017-05-21T10:06:38.051Z,40
2017-05-21T10:07:46.145Z,44
2017-05-21T10:08:54.234Z,44
2017-05-21T10:10:02.310Z,8
2017-05-21T10:11:10.397Z,12
2017-05-21T10:12:18.481Z,48
2017-05-21T10:13:26.568Z,44
2017-05-21T10:14:34.654Z,44
2017-05-21T10:15:42.738Z,44
2017-05-21T10:16:50.833Z,44
2017-05-21T10:17:58.913Z,44
2017-05-21T10:19:07.001Z,44
2017-05-21T10:20:15.083Z,44
2017-05-21T10:21:23.174Z,44
2017-05-21T10:22:31.256Z,44
2017-05-21T10:23:39.348Z,48
2017-05-21T10:24:47.428Z,48
2017-05-21T10:25:55.512Z,48
2017-05-21T10:27:03.601Z,48
2017-05-21T10:28:11.687Z,48
2017-05-21T10:29:19.774Z,48
2017-05-21T10:30:27.859Z,48
2017-05-21T10:31:35.945Z,48
2017-05-21T10:32:44.036Z,48
2017-05-21T10:33:52.118Z,52
2017-05-21T10:35:00.236Z,48
2017-05-21T10:36:08.295Z,48
2017-05-21T10:37:16.375Z,48
2017-05-21T10:38:24.461Z,48
2017-05-21T10:39:32.547Z,48
2017-05-21T10:40:40.634Z,44
2017-05-21T10:41:48.718Z,44
2017-05-21T10:42:56.831Z,44
2017-05-21T10:44:04.917Z,44
2017-05-21T10:45:12.977Z,28
2017-05-21T10:46:21.068Z,48
2017-05-21T10:47:29.151Z,44
2017-05-21T10:48:37.237Z,48
2017-05-21T10:49:45.391Z,44
2017-05-21T10:50:53.409Z,44
2017-05-21T10:52:01.498Z,44
2017-05-21T10:53:09.578Z,44
2017-05-21T10:54:17.669Z,48
2017-05-21T10:55:25.752Z,52
2017-05-21T10:56:33.838Z,52
2017-05-21T10:57:41.932Z,48
2017-05-21T10:58:50.012Z,44
2017-05-21T10:59:58.100Z,44
2017-05-21T11:01:06.237Z,44
2017-05-21T11:02:14.270Z,44
2017-05-21T11:03:22.359Z,44
2017-05-21T11:04:30.441Z,44
2017-05-21T11:05:38.526Z,40
2017-05-21T11:06:46.617Z,44
2017-05-21T11:07:54.704Z,40
2017-05-21T11:09:02.788Z,44
2017-05-21T11:10:10.882Z,44
2017-05-21T11:11:18.968Z,44
2017-05-21T11:12:27.078Z,40
2017-05-21T11:13:35.140Z,40
2017-05-21T11:14:43.227Z,44
2017-05-21T11:15:51.310Z,44
2017-05-21T11:16:59.400Z,40
2017-05-21T11:18:07.484Z,40
2017-05-21T11:19:15.573Z,40
2017-05-21T11:20:23.659Z,40
2017-05-21T11:21:31.742Z,40
2017-05-21T11:22:39.830Z,40
2017-05-21T11:23:48.035Z,40
2017-05-21T11:24:56.025Z,40
2017-05-21T11:26:04.090Z,40
2017-05-21T11:27:12.176Z,36
2017-05-21T11:28:20.263Z,40
2017-05-21T11:29:28.346Z,40
2017-05-21T11:30:36.433Z,40
2017-05-21T11:31:44.524Z,36
2017-05-21T11:32:52.605Z,40
2017-05-21T11:34:00.692Z,40
2017-05-21T11:35:08.777Z,36
2017-05-21T11:36:16.873Z,40
2017-05-21T11:37:24.951Z,40
2017-05-21T11:38:33.062Z,40
2017-05-21T11:39:41.123Z,40
2017-05-21T11:40:49.208Z,36
2017-05-21T11:41:57.293Z,40
2017-05-21T11:43:05.380Z,40
2017-05-21T11:44:13.466Z,36
2017-05-21T11:45:21.552Z,36
2017-05-21T11:46:29.640Z,32
2017-05-21T11:47:37.727Z,36
2017-05-21T11:48:45.812Z,32
2017-05-21T11:49:53.921Z,36
2017-05-21T11:51:01.984Z,36
2017-05-21T11:52:10.196Z,36
2017-05-21T11:53:18.156Z,32
2017-05-21T11:54:26.861Z,36
2017-05-21T11:55:34.333Z,36
2017-05-21T11:56:42.418Z,40
2017-05-21T11:57:50.503Z,36
2017-05-21T11:58:58.587Z,32
2017-05-21T12:00:06.674Z,36
2017-05-21T12:01:14.763Z,36
2017-05-21T12:02:22.870Z,32
2017-05-21T12:03:30.950Z,32
2017-05-21T12:04:39.019Z,32
2017-05-21T12:05:47.110Z,32
2017-05-21T12:06:55.201Z,36
2017-05-21T12:08:03.281Z,36
2017-05-21T12:09:11.367Z,36
2017-05-21T12:10:19.450Z,36
2017-05-21T12:11:27.535Z,32
2017-05-21T12:12:35.623Z,40
2017-05-21T12:13:43.710Z,36
2017-05-21T12:14:51.794Z,32
2017-05-21T12:15:59.883Z,32
2017-05-21T12:17:07.992Z,32
2017-05-21T12:18:16.055Z,36
2017-05-21T12:19:24.143Z,36
2017-05-21T12:20:32.234Z,32
2017-05-21T12:21:40.311Z,36
2017-05-21T12:22:48.399Z,32
2017-05-21T12:23:56.486Z,32
2017-05-21T12:25:04.572Z,32
2017-05-21T12:26:12.659Z,32
2017-05-21T12:27:20.745Z,32
2017-05-21T12:28:28.856Z,36
2017-05-21T12:29:36.927Z,32
2017-05-21T12:30:45.002Z,12
2017-05-21T12:31:53.090Z,8
2017-05-21T12:33:01.173Z,8
2017-05-21T12:34:09.262Z,24
2017-05-21T12:35:17.347Z,32
2017-05-21T12:36:25.622Z,32
2017-05-21T12:37:33.521Z,28
2017-05-21T12:38:41.690Z,32
2017-05-21T12:39:49.692Z,32
2017-05-21T12:40:57.778Z,32
2017-05-21T12:42:05.871Z,28
2017-05-21T12:43:13.959Z,28
2017-05-21T12:44:22.046Z,32
2017-05-21T12:45:30.130Z,32
2017-05-21T12:46:38.218Z,32
2017-05-21T12:47:46.304Z,28
2017-05-21T12:48:54.391Z,32
2017-05-21T12:50:02.474Z,32
2017-05-21T12:51:10.563Z,32
2017-05-21T12:52:18.648Z,32
2017-05-21T12:53:26.735Z,28
2017-05-21T12:54:34.821Z,32
2017-05-21T12:55:42.911Z,28
2017-05-21T12:56:50.996Z,28
2017-05-21T12:57:59.083Z,32
2017-05-21T12:59:07.174Z,32
2017-05-21T13:00:15.257Z,36
2017-05-21T13:01:23.340Z,32
2017-05-21T13:02:31.427Z,36
2017-05-21T13:03:39.515Z,28
2017-05-21T13:04:47.599Z,28
2017-05-21T13:05:55.684Z,32
2017-05-21T13:07:03.774Z,32
2017-05-21T13:08:11.862Z,32
2017-05-21T13:09:19.944Z,28
2017-05-21T13:10:28.031Z,32
2017-05-21T13:11:36.117Z,32
2017-05-21T13:12:44.249Z,32
2017-05-21T13:13:52.289Z,28
2017-05-21T13:15:00.376Z,32
2017-05-21T13:16:08.462Z,28
2017-05-21T13:17:16.551Z,32
2017-05-21T13:18:24.647Z,32
2017-05-21T13:19:32.722Z,36
2017-05-21T13:20:40.814Z,36
2017-05-21T13:21:48.895Z,36
2017-05-21T13:22:56.993Z,36
2017-05-21T13:24:05.070Z,32
2017-05-21T13:25:13.155Z,32
2017-05-21T13:26:21.273Z,32
2017-05-21T13:27:29.330Z,28
2017-05-21T13:28:37.416Z,28
2017-05-21T13:29:45.513Z,28
2017-05-21T13:29:45.525Z,28
2017-05-21T13:30:53.597Z,28
2017-05-21T13:32:01.674Z,32
2017-05-21T13:33:09.762Z,28
2017-05-21T13:34:17.848Z,32
2017-05-21T13:35:25.939Z,36
2017-05-21T13:36:34.023Z,32
2017-05-21T13:37:42.114Z,36
2017-05-21T13:38:50.194Z,32
2017-05-21T13:39:58.283Z,28
2017-05-21T13:41:06.367Z,28
2017-05-21T13:42:14.455Z,28
2017-05-21T13:43:22.540Z,24
2017-05-21T13:44:30.626Z,28
2017-05-21T13:45:38.715Z,28
2017-05-21T13:46:46.802Z,28
2017-05-21T13:47:54.888Z,28
2017-05-21T13:49:02.976Z,28
2017-05-21T13:50:11.064Z,24
2017-05-21T13:51:19.147Z,24
2017-05-21T13:52:27.234Z,24
2017-05-21T13:53:35.321Z,28
2017-05-21T13:54:43.405Z,12
2017-05-21T13:55:51.500Z,12
2017-05-21T13:56:59.579Z,12
2017-05-21T13:58:07.672Z,24
2017-05-21T13:59:15.753Z,28
2017-05-21T14:00:23.861Z,28
2017-05-21T14:01:31.924Z,32
2017-05-21T14:02:40.012Z,32
2017-05-21T14:03:48.123Z,32
2017-05-21T14:04:56.185Z,32
2017-05-21T14:06:04.272Z,28
2017-05-21T14:07:12.359Z,28
2017-05-21T14:08:20.443Z,28
2017-05-21T14:09:28.531Z,28
2017-05-21T14:10:36.619Z,28
2017-05-21T14:11:44.704Z,28
2017-05-21T14:12:52.790Z,28
2017-05-21T14:14:00.877Z,24
2017-05-21T14:15:08.963Z,36
2017-05-21T14:16:17.075Z,36
2017-05-21T14:17:25.137Z,36
2017-05-21T14:18:33.222Z,28
2017-05-21T14:19:41.316Z,16
2017-05-21T14:20:49.396Z,28
2017-05-21T14:21:57.482Z,20
2017-05-21T14:23:05.568Z,32
2017-05-21T14:24:13.654Z,28
2017-05-21T14:25:21.833Z,28
2017-05-21T14:26:29.829Z,20
2017-05-21T14:27:37.919Z,24
2017-05-21T14:28:46.003Z,32
2017-05-21T14:29:54.090Z,20
2017-05-21T14:31:02.182Z,16
2017-05-21T14:32:10.303Z,20
2017-05-21T14:33:18.352Z,28
2017-05-21T14:34:26.445Z,28
2017-05-21T14:35:34.529Z,28
2017-05-21T14:36:42.615Z,28
2017-05-21T14:37:50.701Z,28
2017-05-21T14:38:58.789Z,32
2017-05-21T14:40:06.882Z,28
2017-05-21T14:41:14.966Z,36
2017-05-21T14:42:23.077Z,28
2017-05-21T14:43:31.141Z,36
2017-05-21T14:44:39.225Z,36
2017-05-21T14:45:47.366Z,36
2017-05-21T14:46:55.578Z,36
2017-05-21T14:48:03.483Z,36
2017-05-21T14:49:11.571Z,36
2017-05-21T14:50:19.658Z,36
2017-05-21T14:51:27.745Z,28
2017-05-21T14:52:35.834Z,24
2017-05-21T14:53:43.928Z,24
2017-05-21T14:54:52.004Z,24
2017-05-21T14:56:00.089Z,28
2017-05-21T14:57:08.177Z,28
2017-05-21T14:58:16.266Z,24
2017-05-21T14:59:24.351Z,24
2017-05-21T15:00:32.439Z,24
2017-05-21T15:01:40.524Z,28
2017-05-21T15:02:48.614Z,24
2017-05-21T15:03:56.698Z,24
2017-05-21T15:05:04.784Z,20
2017-05-21T15:06:12.876Z,20
2017-05-21T15:07:20.956Z,24
2017-05-21T15:08:29.066Z,24
2017-05-21T15:09:37.130Z,20
2017-05-21T15:10:45.228Z,20
2017-05-21T15:11:53.304Z,20
2017-05-21T15:13:01.387Z,24
2017-05-21T15:14:09.475Z,24
2017-05-21T15:15:17.560Z,24
2017-05-21T15:16:25.658Z,24
2017-05-21T15:17:33.737Z,24
2017-05-21T15:18:41.824Z,20
2017-05-21T15:19:49.910Z,24
2017-05-21T15:20:58.004Z,20
2017-05-21T15:22:06.082Z,20
2017-05-21T15:23:14.227Z,20
2017-05-21T15:24:22.258Z,20
2017-05-21T15:25:30.354Z,20
2017-05-21T15:26:38.429Z,20
2017-05-21T15:27:46.516Z,20
2017-05-21T15:28:54.603Z,20
2017-05-21T15:30:02.689Z,28
2017-05-21T15:31:10.777Z,28
2017-05-21T15:32:18.892Z,24
2017-05-21T15:33:26.949Z,24
2017-05-21T15:34:35.037Z,24
2017-05-21T15:35:43.128Z,24
2017-05-21T15:36:51.210Z,24
2017-05-21T15:37:59.294Z,28
2017-05-21T15:39:07.383Z,20
2017-05-21T15:40:15.465Z,20
2017-05-21T15:41:23.556Z,20
2017-05-21T15:42:31.641Z,20
2017-05-21T15:43:39.740Z,16
2017-05-21T15:44:47.813Z,16
2017-05-21T15:45:55.899Z,20
2017-05-21T15:47:03.989Z,20
2017-05-21T15:48:12.075Z,20
2017-05-21T15:49:20.161Z,16
2017-05-21T15:50:28.245Z,16
2017-05-21T15:51:36.332Z,16
2017-05-21T15:52:44.420Z,12
2017-05-21T15:53:52.507Z,12
2017-05-21T15:55:00.954Z,12
2017-05-21T15:56:08.677Z,20
2017-05-21T15:57:16.763Z,20
2017-05-21T15:58:24.852Z,20
2017-05-21T15:59:32.948Z,16
2017-05-21T16:00:41.057Z,16
2017-05-21T16:01:49.113Z,16
2017-05-21T16:02:57.201Z,16
2017-05-21T16:04:05.286Z,16
2017-05-21T16:05:13.395Z,16
2017-05-21T16:06:21.456Z,16
2017-05-21T16:07:29.538Z,16
2017-05-21T16:08:37.627Z,16
2017-05-21T16:09:45.719Z,16
2017-05-21T16:10:53.804Z,16
2017-05-21T16:12:01.890Z,16
2017-05-21T16:13:09.986Z,16
2017-05-21T16:14:18.090Z,20
2017-05-21T16:15:26.158Z,20
2017-05-21T16:16:34.269Z,20
2017-05-21T16:17:42.330Z,24
2017-05-21T16:18:50.419Z,20
2017-05-21T16:19:58.502Z,16
2017-05-21T16:21:06.588Z,20
2017-05-21T16:22:14.767Z,16